KHHW Airport (Stan Stamper Muni) Information

FAA: HHW - ICAO: KHHW

KHHW Airport Location

State Oklahoma
County Choctaw
City Hugo
KHHW Airport is 2 miles northwest of Hugo, OK.
Latitude 34-02-01.1000N
Longitude 095-32-31.4000W
Elevation 572ft

KHHW Airport METARs

METAR KHHW 251755Z AUTO 02003KT 10SM CLR 23/12 A3001 RMK AO2
Altimeter 30.01"
Temperature 23.0°C (73.4°F)
Wind 20° at 3KT
Clouds Skies are clear.
Visibility 10.0mi
Time observed: 2021-10-25T17:55:00Z

KHHW Airport Details

Status Operational
Activation August 1985
Ownership Public
Usage Public
Chart DALLAS-FT WORTH
ATC on-site No
Beacon schedule sunset-sunrise
Beacon color clear green

KHHW Airport Contacts

Owner CITY OF HUGO
Owner address 201 S SECOND ST, HUGO, OK 74743
Owner phone 580-326-2344
Manager BARRY WOODS
Manager address 17345 E 650 ROAD, HENNESSEY, OK 73742
Manager phone 918-408-1644

KHHW Airport (Stan Stamper Muni) Radio Frequencies

KHHW (Airport) Radio Frequencies

UNICOM 122.8
Common traffic advisory frequency (CTAF) 122.8